Time;durP1;ratioP1;P1;durP2;ratioP2;P2;SDS_P1;SDS_P2;PMS_P1;PMS_P2;Temp;Humidity;BMP_temperature;BMP_pressure;BME280_temperature;BME280_humidity;BME280_pressure;Samples;Min_cycle;Max_cycle;Signal;HPM_P1;HPM_P2
2021/06/20 00:00:26;;;;;;;3.65;2.80;;;;;;;;;;4959819;28;20049;-72
2021/06/20 00:02:53;;;;;;;4.28;3.10;;;;;;;;;;4961885;28;20054;-71
2021/06/20 00:05:21;;;;;;;4.18;2.63;;;;;;;;;;4958368;28;20077;-71
2021/06/20 00:07:48;;;;;;;5.25;3.00;;;;;;;;;;4960662;28;21178;-72
2021/06/20 00:10:18;;;;;;;5.57;3.22;;;;;;;;;;4949259;28;20094;-72
2021/06/20 00:12:45;;;;;;;3.80;2.90;;;;;;;;;;4957895;28;20130;-72
2021/06/20 00:15:12;;;;;;;4.20;3.10;;;;;;;;;;4966844;28;20074;-72
2021/06/20 00:17:39;;;;;;;4.35;3.10;;;;;;;;;;4963607;28;20030;-72
2021/06/20 00:20:07;;;;;;;3.78;3.13;;;;;;;;;;4961363;28;20067;-72
2021/06/20 00:22:33;;;;;;;4.72;2.92;;;;;;;;;;4961801;28;20062;-72
2021/06/20 00:25:00;;;;;;;3.88;2.88;;;;;;;;;;4961309;28;20062;-71
2021/06/20 00:27:26;;;;;;;4.18;3.10;;;;;;;;;;4960766;28;20101;-72
2021/06/20 00:29:53;;;;;;;4.65;3.70;;;;;;;;;;4964515;28;20522;-72
2021/06/20 00:32:19;;;;;;;4.72;3.55;;;;;;;;;;4960020;28;20039;-72
2021/06/20 00:34:46;;;;;;;3.60;3.13;;;;;;;;;;4957788;28;22187;-72
2021/06/20 00:37:12;;;;;;;4.30;2.85;;;;;;;;;;4964384;28;20081;-72
2021/06/20 00:39:39;;;;;;;4.22;3.30;;;;;;;;;;4974172;28;20507;-72
2021/06/20 00:42:05;;;;;;;3.88;2.90;;;;;;;;;;4958904;28;20074;-72
2021/06/20 00:44:42;;;;;;;4.03;2.85;;;;;;;;;;4961448;28;20136;-72
2021/06/20 00:47:09;;;;;;;5.05;3.20;;;;;;;;;;4956994;28;20622;-72
2021/06/20 00:49:35;;;;;;;3.95;3.00;;;;;;;;;;4958646;28;20070;-72
2021/06/20 00:52:01;;;;;;;5.50;2.80;;;;;;;;;;4966124;28;20082;-72
2021/06/20 00:54:28;;;;;;;3.50;2.78;;;;;;;;;;4961895;28;20070;-72
2021/06/20 00:56:54;;;;;;;4.15;3.10;;;;;;;;;;4963550;28;20533;-71
2021/06/20 00:59:24;;;;;;;4.47;3.13;;;;;;;;;;4964152;28;20062;-72
2021/06/20 01:01:50;;;;;;;4.25;2.80;;;;;;;;;;4960969;28;20580;-72
2021/06/20 01:04:17;;;;;;;3.75;2.90;;;;;;;;;;4962179;28;20487;-72
2021/06/20 01:06:43;;;;;;;4.10;3.22;;;;;;;;;;4963687;28;20086;-72
2021/06/20 01:09:09;;;;;;;4.13;3.03;;;;;;;;;;4963905;28;20066;-72
2021/06/20 01:11:36;;;;;;;6.20;3.25;;;;;;;;;;4964615;28;20107;-72
2021/06/20 01:14:03;;;;;;;4.78;3.40;;;;;;;;;;4967052;28;20070;-72
2021/06/20 01:16:29;;;;;;;5.47;3.33;;;;;;;;;;4967330;28;20548;-71
2021/06/20 01:18:57;;;;;;;4.60;3.40;;;;;;;;;;4965852;28;20482;-71
2021/06/20 01:21:23;;;;;;;4.40;2.97;;;;;;;;;;4965545;28;20078;-71
2021/06/20 01:23:50;;;;;;;4.32;3.13;;;;;;;;;;4961868;28;20070;-71
2021/06/20 01:26:16;;;;;;;4.35;3.10;;;;;;;;;;4970182;28;20511;-71
2021/06/20 01:29:02;;;;;;;5.20;3.10;;;;;;;;;;4959944;28;20067;-71
2021/06/20 01:31:31;;;;;;;4.75;3.38;;;;;;;;;;4960700;28;20062;-71
2021/06/20 01:33:57;;;;;;;4.13;2.80;;;;;;;;;;4960971;28;20113;-71
2021/06/20 01:36:24;;;;;;;4.03;3.17;;;;;;;;;;4968984;28;20047;-72
2021/06/20 01:38:50;;;;;;;4.95;3.50;;;;;;;;;;4965420;28;20058;-71
2021/06/20 01:41:16;;;;;;;3.63;3.22;;;;;;;;;;4960674;28;20102;-71
2021/06/20 01:43:43;;;;;;;7.55;3.22;;;;;;;;;;4957323;28;20067;-72
2021/06/20 01:46:09;;;;;;;6.95;3.15;;;;;;;;;;4952221;28;20055;-72
2021/06/20 01:48:39;;;;;;;3.65;3.20;;;;;;;;;;4951462;28;20117;-72
2021/06/20 01:51:05;;;;;;;4.30;3.20;;;;;;;;;;4963565;28;20117;-72
2021/06/20 01:53:32;;;;;;;4.13;3.10;;;;;;;;;;4953343;28;20067;-72
2021/06/20 01:55:58;;;;;;;4.30;3.13;;;;;;;;;;4959084;28;20443;-71
2021/06/20 01:58:25;;;;;;;4.45;3.05;;;;;;;;;;4962366;28;20051;-71
2021/06/20 02:00:52;;;;;;;4.68;3.30;;;;;;;;;;4964604;28;20058;-71
2021/06/20 02:03:24;;;;;;;3.97;2.92;;;;;;;;;;4959408;28;20071;-71
2021/06/20 02:05:51;;;;;;;3.95;2.92;;;;;;;;;;4960730;28;22241;-71
2021/06/20 02:08:18;;;;;;;3.70;3.30;;;;;;;;;;4962849;28;20451;-71
2021/06/20 02:10:45;;;;;;;3.92;3.17;;;;;;;;;;4970555;28;20070;-71
2021/06/20 02:13:12;;;;;;;3.83;3.15;;;;;;;;;;4965678;28;20155;-72
2021/06/20 02:15:38;;;;;;;4.03;3.03;;;;;;;;;;4956837;28;20592;-71
2021/06/20 02:18:05;;;;;;;5.47;3.30;;;;;;;;;;4968269;28;20062;-71
2021/06/20 02:20:32;;;;;;;3.78;3.22;;;;;;;;;;4956527;28;20070;-72
2021/06/20 02:22:58;;;;;;;4.97;3.30;;;;;;;;;;4954272;28;20038;-71
2021/06/20 02:25:25;;;;;;;5.45;2.97;;;;;;;;;;4966952;28;20459;-72
2021/06/20 02:27:52;;;;;;;4.97;3.30;;;;;;;;;;4964884;28;20058;-72
2021/06/20 02:30:19;;;;;;;3.78;3.05;;;;;;;;;;4959315;28;20513;-71
2021/06/20 02:32:46;;;;;;;4.63;3.05;;;;;;;;;;4958452;28;20067;-71
2021/06/20 02:35:13;;;;;;;4.43;3.33;;;;;;;;;;4962121;28;20059;-71
2021/06/20 02:37:40;;;;;;;4.93;3.00;;;;;;;;;;4962564;28;20077;-72
2021/06/20 02:40:07;;;;;;;4.35;3.00;;;;;;;;;;4957728;28;20660;-71
2021/06/20 02:42:34;;;;;;;4.00;2.83;;;;;;;;;;4957383;28;20063;-72
2021/06/20 02:45:01;;;;;;;5.28;3.08;;;;;;;;;;4960715;28;20479;-72
2021/06/20 02:47:28;;;;;;;3.65;3.13;;;;;;;;;;4959317;28;20042;-72
2021/06/20 02:49:54;;;;;;;3.58;3.05;;;;;;;;;;4967010;28;20070;-72
2021/06/20 02:52:21;;;;;;;7.50;3.33;;;;;;;;;;4959067;28;20690;-72
2021/06/20 02:54:50;;;;;;;4.68;3.00;;;;;;;;;;4959259;28;21185;-71
2021/06/20 02:57:22;;;;;;;4.18;2.90;;;;;;;;;;4956577;28;20129;-72
2021/06/20 02:59:49;;;;;;;4.55;2.90;;;;;;;;;;4948246;28;20487;-72
2021/06/20 03:02:16;;;;;;;4.15;3.35;;;;;;;;;;4962109;28;20098;-72
2021/06/20 03:04:42;;;;;;;3.60;2.88;;;;;;;;;;4961239;28;20113;-72
2021/06/20 03:07:09;;;;;;;5.05;3.00;;;;;;;;;;4957288;28;20058;-72
2021/06/20 03:09:37;;;;;;;4.68;3.08;;;;;;;;;;4962003;28;20069;-72
2021/06/20 03:12:04;;;;;;;4.07;2.83;;;;;;;;;;4953808;28;20109;-72
2021/06/20 03:14:31;;;;;;;4.90;3.20;;;;;;;;;;4955542;28;20460;-72
2021/06/20 03:16:57;;;;;;;4.28;3.17;;;;;;;;;;4959126;28;20066;-72
2021/06/20 03:19:24;;;;;;;3.55;3.03;;;;;;;;;;4961649;28;20066;-72
2021/06/20 03:21:51;;;;;;;3.97;2.60;;;;;;;;;;4959043;28;20110;-72
2021/06/20 03:24:18;;;;;;;3.47;2.80;;;;;;;;;;4956966;28;20055;-72
2021/06/20 03:26:44;;;;;;;5.72;2.88;;;;;;;;;;4952921;28;20067;-72
2021/06/20 03:29:11;;;;;;;5.05;2.88;;;;;;;;;;4957944;28;20066;-71
2021/06/20 03:31:37;;;;;;;5.88;3.33;;;;;;;;;;4963345;28;20070;-71
2021/06/20 03:34:03;;;;;;;4.40;3.22;;;;;;;;;;4959417;28;20130;-71
2021/06/20 03:36:30;;;;;;;5.97;3.33;;;;;;;;;;4956025;28;20521;-72
2021/06/20 03:38:56;;;;;;;4.07;3.05;;;;;;;;;;4964333;28;20070;-72
2021/06/20 03:41:23;;;;;;;6.10;3.30;;;;;;;;;;4959273;28;20049;-72
2021/06/20 03:43:50;;;;;;;3.88;3.10;;;;;;;;;;4962782;28;20039;-73
2021/06/20 03:46:18;;;;;;;4.35;3.20;;;;;;;;;;4952802;28;20054;-72
2021/06/20 03:48:45;;;;;;;3.75;3.13;;;;;;;;;;4959258;28;20047;-72
2021/06/20 03:51:12;;;;;;;4.35;3.10;;;;;;;;;;4967947;28;20062;-72
2021/06/20 03:53:38;;;;;;;3.80;3.40;;;;;;;;;;4957440;28;20067;-72
2021/06/20 03:56:05;;;;;;;4.68;3.20;;;;;;;;;;4960313;28;21096;-72
2021/06/20 03:58:31;;;;;;;4.85;3.05;;;;;;;;;;4968971;28;20066;-72
2021/06/20 04:00:57;;;;;;;5.95;3.10;;;;;;;;;;4952800;28;20078;-72
2021/06/20 04:03:24;;;;;;;5.90;3.80;;;;;;;;;;4962884;28;20141;-73
2021/06/20 04:05:51;;;;;;;4.57;3.38;;;;;;;;;;4967716;28;20483;-71
2021/06/20 04:08:18;;;;;;;4.78;3.10;;;;;;;;;;4961062;28;20058;-71
2021/06/20 04:10:44;;;;;;;5.03;3.00;;;;;;;;;;4960796;28;20027;-71
2021/06/20 04:13:11;;;;;;;4.35;3.42;;;;;;;;;;4968114;28;20077;-71
2021/06/20 04:15:37;;;;;;;4.65;3.00;;;;;;;;;;4963948;28;20063;-72
2021/06/20 04:18:04;;;;;;;4.63;3.55;;;;;;;;;;4962445;28;20098;-71
2021/06/20 04:20:30;;;;;;;3.75;2.97;;;;;;;;;;4960284;28;20112;-72
2021/06/20 04:22:56;;;;;;;4.47;3.03;;;;;;;;;;4960767;28;20062;-71
2021/06/20 04:25:23;;;;;;;4.30;3.10;;;;;;;;;;4953163;28;20098;-72
2021/06/20 04:27:50;;;;;;;4.65;3.28;;;;;;;;;;4968222;28;20137;-72
2021/06/20 04:30:17;;;;;;;3.80;2.95;;;;;;;;;;4966949;28;20070;-72
2021/06/20 04:32:45;;;;;;;4.70;3.22;;;;;;;;;;4962960;28;20066;-72
2021/06/20 04:35:12;;;;;;;4.82;3.67;;;;;;;;;;4965446;28;20125;-73
2021/06/20 04:37:39;;;;;;;4.82;3.42;;;;;;;;;;4962394;28;20062;-72
2021/06/20 04:40:08;;;;;;;4.88;3.30;;;;;;;;;;4964830;28;20073;-72
2021/06/20 04:42:39;;;;;;;5.78;3.80;;;;;;;;;;4962847;28;20122;-72
2021/06/20 04:45:06;;;;;;;5.72;3.42;;;;;;;;;;4962101;28;20059;-72
2021/06/20 04:47:33;;;;;;;5.78;3.72;;;;;;;;;;4959462;28;20597;-72
2021/06/20 04:50:00;;;;;;;4.65;3.58;;;;;;;;;;4959908;28;20113;-72
2021/06/20 04:52:26;;;;;;;5.03;3.65;;;;;;;;;;4962098;28;20107;-72
2021/06/20 04:54:53;;;;;;;4.55;3.63;;;;;;;;;;4965047;28;20062;-72
2021/06/20 04:57:27;;;;;;;3.65;3.33;;;;;;;;;;4963287;28;20054;-72
2021/06/20 04:59:54;;;;;;;4.13;3.63;;;;;;;;;;4956621;28;20183;-71
2021/06/20 05:02:21;;;;;;;5.72;3.70;;;;;;;;;;4958810;28;20075;-71
2021/06/20 05:04:48;;;;;;;4.75;3.85;;;;;;;;;;4965360;28;20384;-72
2021/06/20 05:07:15;;;;;;;3.78;3.30;;;;;;;;;;4960302;28;20059;-72
2021/06/20 05:09:42;;;;;;;5.93;3.20;;;;;;;;;;4960555;28;20122;-73
2021/06/20 05:12:09;;;;;;;5.22;3.30;;;;;;;;;;4980918;28;20058;-71
2021/06/20 05:14:36;;;;;;;4.60;3.33;;;;;;;;;;4954000;28;20562;-71
2021/06/20 05:17:03;;;;;;;4.13;3.03;;;;;;;;;;4963130;28;20070;-72
2021/06/20 05:19:29;;;;;;;3.90;3.50;;;;;;;;;;4951108;28;20058;-72
2021/06/20 05:21:56;;;;;;;4.82;3.15;;;;;;;;;;4965575;28;20077;-72
2021/06/20 05:24:22;;;;;;;4.10;3.17;;;;;;;;;;4966505;28;20074;-72
2021/06/20 05:26:49;;;;;;;4.60;3.40;;;;;;;;;;4964806;28;20078;-72
2021/06/20 05:29:15;;;;;;;3.35;2.83;;;;;;;;;;4954819;28;20515;-71
2021/06/20 05:31:42;;;;;;;3.70;3.20;;;;;;;;;;4960623;28;20035;-72
2021/06/20 05:34:08;;;;;;;4.20;3.00;;;;;;;;;;4959787;28;20552;-71
2021/06/20 05:36:34;;;;;;;3.72;3.10;;;;;;;;;;4957269;28;20507;-71
2021/06/20 05:39:01;;;;;;;4.28;2.72;;;;;;;;;;4957840;28;20113;-71
2021/06/20 05:41:27;;;;;;;3.80;3.10;;;;;;;;;;4960120;28;20122;-72
2021/06/20 05:43:54;;;;;;;5.25;2.95;;;;;;;;;;4959525;28;20502;-73
2021/06/20 05:46:22;;;;;;;3.70;2.75;;;;;;;;;;4956870;28;20074;-72
2021/06/20 05:48:49;;;;;;;4.82;2.80;;;;;;;;;;4960953;28;20095;-72
2021/06/20 05:51:15;;;;;;;4.90;3.20;;;;;;;;;;4955729;28;20069;-72
2021/06/20 05:53:42;;;;;;;4.18;3.10;;;;;;;;;;4958396;28;20058;-72
2021/06/20 05:56:09;;;;;;;4.35;3.17;;;;;;;;;;4974298;28;20074;-72
2021/06/20 05:58:35;;;;;;;4.53;3.20;;;;;;;;;;4962428;28;20066;-72
2021/06/20 06:01:02;;;;;;;3.90;3.10;;;;;;;;;;4960849;28;23147;-73
2021/06/20 06:03:28;;;;;;;4.60;3.15;;;;;;;;;;4951900;28;20138;-72
2021/06/20 06:05:55;;;;;;;4.38;3.30;;;;;;;;;;4960410;28;20065;-72
2021/06/20 06:08:21;;;;;;;3.70;3.17;;;;;;;;;;4955291;28;20086;-72
2021/06/20 06:10:48;;;;;;;4.47;3.20;;;;;;;;;;4956357;28;22176;-70
2021/06/20 06:13:14;;;;;;;4.75;3.10;;;;;;;;;;4961495;28;20089;-71
2021/06/20 06:15:40;;;;;;;4.97;3.03;;;;;;;;;;4956976;28;20507;-70
2021/06/20 06:18:07;;;;;;;4.43;3.92;;;;;;;;;;4961388;28;20594;-71
2021/06/20 06:20:33;;;;;;;5.07;3.80;;;;;;;;;;4956412;28;20054;-71
2021/06/20 06:23:00;;;;;;;6.10;4.40;;;;;;;;;;4954817;28;20043;-71
2021/06/20 06:25:27;;;;;;;6.57;4.75;;;;;;;;;;4951072;28;20111;-71
2021/06/20 06:27:53;;;;;;;6.65;4.00;;;;;;;;;;4956535;28;20065;-70
2021/06/20 06:30:20;;;;;;;5.30;4.80;;;;;;;;;;4960934;28;20062;-70
2021/06/20 06:32:47;;;;;;;5.45;4.13;;;;;;;;;;4956637;28;20074;-70
2021/06/20 06:35:14;;;;;;;5.78;4.38;;;;;;;;;;4956722;28;20073;-71
2021/06/20 06:37:41;;;;;;;6.53;5.60;;;;;;;;;;4960153;28;20086;-71
2021/06/20 06:40:09;;;;;;;3.92;3.03;;;;;;;;;;4958727;28;20070;-70
2021/06/20 06:42:35;;;;;;;5.05;3.78;;;;;;;;;;4955316;28;20074;-71
2021/06/20 06:45:02;;;;;;;4.47;4.00;;;;;;;;;;4959538;28;20065;-70
2021/06/20 06:47:29;;;;;;;4.28;3.55;;;;;;;;;;4955894;28;20447;-71
2021/06/20 06:49:56;;;;;;;4.72;3.95;;;;;;;;;;4957222;28;20066;-70
2021/06/20 06:52:22;;;;;;;5.35;3.55;;;;;;;;;;4954767;28;20074;-70
2021/06/20 06:54:52;;;;;;;4.75;3.90;;;;;;;;;;4956187;28;20760;-70
2021/06/20 06:57:19;;;;;;;4.43;3.53;;;;;;;;;;4958434;28;20073;-70
2021/06/20 06:59:45;;;;;;;4.07;3.05;;;;;;;;;;4958691;28;20067;-70
2021/06/20 07:02:11;;;;;;;5.00;3.50;;;;;;;;;;4951749;28;20762;-70
2021/06/20 07:04:38;;;;;;;4.50;3.65;;;;;;;;;;4954749;28;20093;-70
2021/06/20 07:07:04;;;;;;;4.50;3.45;;;;;;;;;;4974025;28;20079;-70
2021/06/20 07:09:31;;;;;;;4.25;3.50;;;;;;;;;;4955506;28;20058;-70
2021/06/20 07:11:58;;;;;;;3.92;3.47;;;;;;;;;;4953058;28;20058;-70
2021/06/20 07:14:24;;;;;;;5.05;2.72;;;;;;;;;;4955456;28;20051;-71
2021/06/20 07:16:51;;;;;;;3.15;2.85;;;;;;;;;;4950349;28;20130;-70
2021/06/20 07:19:17;;;;;;;3.60;3.28;;;;;;;;;;4957842;28;20735;-70
2021/06/20 07:21:44;;;;;;;4.05;3.28;;;;;;;;;;4961136;28;20074;-70
2021/06/20 07:24:10;;;;;;;4.53;3.20;;;;;;;;;;4963911;28;20573;-71
2021/06/20 07:26:37;;;;;;;3.60;3.22;;;;;;;;;;4962793;28;21232;-70
2021/06/20 07:29:03;;;;;;;4.13;3.28;;;;;;;;;;4960997;28;20066;-69
2021/06/20 07:31:30;;;;;;;4.10;3.60;;;;;;;;;;4955604;28;20059;-70
2021/06/20 07:33:56;;;;;;;5.13;3.38;;;;;;;;;;4963525;28;20495;-70
2021/06/20 07:36:23;;;;;;;5.38;3.75;;;;;;;;;;4953967;28;20039;-70
2021/06/20 07:38:49;;;;;;;4.97;3.40;;;;;;;;;;4962977;28;20059;-69
2021/06/20 07:41:16;;;;;;;3.25;2.85;;;;;;;;;;4962520;28;20066;-70
2021/06/20 07:43:42;;;;;;;3.30;2.67;;;;;;;;;;4963801;28;20065;-70
2021/06/20 07:46:09;;;;;;;4.78;3.17;;;;;;;;;;4966239;28;20054;-69
2021/06/20 07:48:36;;;;;;;3.47;2.72;;;;;;;;;;4960722;28;20152;-70
2021/06/20 07:51:02;;;;;;;4.25;2.63;;;;;;;;;;4959107;28;20081;-70
2021/06/20 07:53:28;;;;;;;4.43;2.60;;;;;;;;;;4956805;28;20458;-70
2021/06/20 07:55:55;;;;;;;3.17;2.33;;;;;;;;;;4957254;28;20483;-71
2021/06/20 07:58:21;;;;;;;2.40;2.20;;;;;;;;;;4952844;28;20074;-71
2021/06/20 08:00:48;;;;;;;3.65;2.10;;;;;;;;;;4949446;28;20126;-71
2021/06/20 08:03:14;;;;;;;2.72;2.30;;;;;;;;;;4960448;28;20651;-70
2021/06/20 08:05:41;;;;;;;3.88;2.47;;;;;;;;;;4950483;28;20082;-71
2021/06/20 08:08:07;;;;;;;4.20;2.60;;;;;;;;;;4956314;28;20066;-70
2021/06/20 08:10:33;;;;;;;3.35;2.05;;;;;;;;;;4954354;28;20550;-70
2021/06/20 08:13:00;;;;;;;3.00;2.50;;;;;;;;;;4951815;28;20058;-70
2021/06/20 08:15:26;;;;;;;2.47;2.10;;;;;;;;;;4958037;28;20058;-70
2021/06/20 08:17:53;;;;;;;4.05;2.45;;;;;;;;;;4959227;28;20585;-70
2021/06/20 08:20:19;;;;;;;3.35;2.35;;;;;;;;;;4959590;28;20113;-70
2021/06/20 08:22:46;;;;;;;3.20;2.50;;;;;;;;;;4951128;28;20791;-71
2021/06/20 08:25:13;;;;;;;3.30;2.40;;;;;;;;;;4955425;28;20083;-70
2021/06/20 08:27:40;;;;;;;3.20;2.40;;;;;;;;;;4954232;28;20110;-71
2021/06/20 08:30:08;;;;;;;2.63;2.10;;;;;;;;;;4957412;28;20505;-70
2021/06/20 08:32:34;;;;;;;2.63;2.13;;;;;;;;;;4957535;28;20070;-69
2021/06/20 08:35:02;;;;;;;3.03;2.28;;;;;;;;;;4957854;28;20062;-70
2021/06/20 08:37:29;;;;;;;2.30;1.98;;;;;;;;;;4966632;28;20574;-69
2021/06/20 08:39:55;;;;;;;3.15;2.38;;;;;;;;;;4959040;28;20565;-70
2021/06/20 08:42:22;;;;;;;2.53;2.33;;;;;;;;;;4961084;28;20043;-70
2021/06/20 08:44:48;;;;;;;2.60;2.25;;;;;;;;;;4958888;28;20094;-70
2021/06/20 08:47:16;;;;;;;2.50;2.10;;;;;;;;;;4956483;28;20077;-70
2021/06/20 08:49:45;;;;;;;3.65;2.28;;;;;;;;;;4954769;28;20752;-70
2021/06/20 08:52:11;;;;;;;3.15;2.20;;;;;;;;;;4957122;28;20114;-70
2021/06/20 08:54:38;;;;;;;2.85;2.40;;;;;;;;;;4956376;28;20063;-70
2021/06/20 08:57:07;;;;;;;2.25;2.00;;;;;;;;;;4962912;28;20058;-70
2021/06/20 08:59:33;;;;;;;3.28;2.05;;;;;;;;;;4954921;28;20062;-70
2021/06/20 09:02:00;;;;;;;3.10;2.30;;;;;;;;;;4961939;28;20063;-71
2021/06/20 09:04:31;;;;;;;4.20;2.50;;;;;;;;;;4958449;28;20117;-71
2021/06/20 09:06:59;;;;;;;3.10;2.50;;;;;;;;;;4958882;28;20063;-72
2021/06/20 09:09:27;;;;;;;2.78;2.33;;;;;;;;;;4961627;28;20051;-72
2021/06/20 09:11:53;;;;;;;2.95;2.25;;;;;;;;;;4959324;28;20557;-72
2021/06/20 09:14:21;;;;;;;2.90;2.30;;;;;;;;;;4955177;28;20117;-72
2021/06/20 09:16:55;;;;;;;3.97;2.13;;;;;;;;;;4961645;28;20089;-72
2021/06/20 09:19:31;;;;;;;2.50;2.13;;;;;;;;;;4955685;28;20058;-72
2021/06/20 09:22:01;;;;;;;2.75;2.13;;;;;;;;;;4957083;28;21370;-73
2021/06/20 09:24:27;;;;;;;3.47;2.30;;;;;;;;;;4956372;28;20118;-72
2021/06/20 09:26:55;;;;;;;3.20;2.00;;;;;;;;;;4965836;28;20071;-73
2021/06/20 09:29:34;;;;;;;3.33;2.28;;;;;;;;;;4963742;28;20101;-72
2021/06/20 09:32:01;;;;;;;5.28;2.45;;;;;;;;;;4960854;28;20155;-71
2021/06/20 09:34:28;;;;;;;2.88;2.55;;;;;;;;;;4959671;28;20063;-72
2021/06/20 09:37:01;;;;;;;3.20;2.40;;;;;;;;;;4975709;28;20070;-72
2021/06/20 09:39:29;;;;;;;4.90;2.63;;;;;;;;;;4958140;28;20098;-72
2021/06/20 09:41:57;;;;;;;5.38;2.53;;;;;;;;;;4954361;28;20082;-71
2021/06/20 09:44:40;;;;;;;4.25;2.88;;;;;;;;;;4953168;28;20051;-72
2021/06/20 09:47:07;;;;;;;4.55;2.95;;;;;;;;;;4952018;28;20176;-72
2021/06/20 09:49:33;;;;;;;3.35;2.70;;;;;;;;;;4959898;28;20066;-72
2021/06/20 09:52:00;;;;;;;3.70;2.63;;;;;;;;;;4954503;28;20578;-72
2021/06/20 09:54:27;;;;;;;5.28;3.13;;;;;;;;;;4961785;28;20082;-72
2021/06/20 09:56:53;;;;;;;4.30;3.17;;;;;;;;;;4965416;28;20078;-71
2021/06/20 09:59:26;;;;;;;3.60;2.97;;;;;;;;;;4957617;28;20067;-72
2021/06/20 10:01:52;;;;;;;4.78;2.95;;;;;;;;;;4953231;28;21509;-72
2021/06/20 10:04:19;;;;;;;7.07;3.58;;;;;;;;;;4960601;28;20117;-72
2021/06/20 10:06:46;;;;;;;5.35;3.85;;;;;;;;;;4956490;28;20066;-72
2021/06/20 10:09:12;;;;;;;5.50;3.83;;;;;;;;;;4960128;28;20062;-72
2021/06/20 10:11:38;;;;;;;5.80;4.18;;;;;;;;;;4959621;28;20067;-72
2021/06/20 10:14:05;;;;;;;6.35;4.30;;;;;;;;;;4959468;28;20113;-72
2021/06/20 10:16:35;;;;;;;7.10;4.00;;;;;;;;;;4954224;28;20045;-72
2021/06/20 10:19:04;;;;;;;6.43;4.70;;;;;;;;;;4955112;28;20071;-72
2021/06/20 10:21:44;;;;;;;6.30;4.25;;;;;;;;;;4962322;28;20090;-72
2021/06/20 10:24:18;;;;;;;6.45;4.55;;;;;;;;;;4976776;28;20132;-72
2021/06/20 10:27:06;;;;;;;6.82;4.50;;;;;;;;;;4958202;28;20074;-71
2021/06/20 10:29:34;;;;;;;5.35;4.68;;;;;;;;;;4962584;28;20117;-71
2021/06/20 10:32:02;;;;;;;6.65;5.00;;;;;;;;;;4956454;28;20509;-70
2021/06/20 10:34:29;;;;;;;9.45;5.65;;;;;;;;;;4964514;28;20066;-72
2021/06/20 10:36:58;;;;;;;7.40;4.75;;;;;;;;;;4961796;28;20061;-71
2021/06/20 10:39:24;;;;;;;6.93;5.38;;;;;;;;;;4960261;28;20525;-72
2021/06/20 10:42:11;;;;;;;7.20;5.47;;;;;;;;;;4951127;28;20407;-71
2021/06/20 10:44:55;;;;;;;6.25;5.43;;;;;;;;;;4956368;28;20051;-71
2021/06/20 10:47:29;;;;;;;6.50;5.28;;;;;;;;;;4955386;28;20121;-71
2021/06/20 10:50:15;;;;;;;10.48;5.18;;;;;;;;;;4948695;28;20051;-71
2021/06/20 10:52:43;;;;;;;5.95;5.20;;;;;;;;;;4964276;28;20097;-71
2021/06/20 10:55:14;;;;;;;10.48;5.65;;;;;;;;;;4950710;28;20451;-71
2021/06/20 10:57:41;;;;;;;;;;;;;;;;;;4956786;28;20063;-71
2021/06/20 11:00:07;;;;;;;6.47;5.40;;;;;;;;;;4961710;28;19985;-71
2021/06/20 11:02:34;;;;;;;6.25;5.43;;;;;;;;;;4959579;28;20081;-71
2021/06/20 11:05:03;;;;;;;6.60;5.80;;;;;;;;;;4967267;28;20062;-70
2021/06/20 11:07:29;;;;;;;6.70;5.13;;;;;;;;;;4960598;28;20127;-72
2021/06/20 11:09:57;;;;;;;6.65;5.13;;;;;;;;;;4972353;28;20112;-70
2021/06/20 11:12:23;;;;;;;6.28;5.63;;;;;;;;;;4962384;28;20577;-71
2021/06/20 11:14:50;;;;;;;6.57;5.57;;;;;;;;;;4964307;28;20723;-71
2021/06/20 11:17:18;;;;;;;6.47;5.70;;;;;;;;;;4951010;28;20059;-71
2021/06/20 11:19:44;;;;;;;6.95;6.22;;;;;;;;;;4955249;28;20067;-71
2021/06/20 11:22:12;;;;;;;6.25;5.65;;;;;;;;;;4962257;28;20101;-71
2021/06/20 11:24:50;;;;;;;6.65;5.85;;;;;;;;;;4953967;28;20098;-71
2021/06/20 11:27:18;;;;;;;6.57;5.80;;;;;;;;;;4956036;28;20097;-71
2021/06/20 11:29:45;;;;;;;7.90;6.47;;;;;;;;;;4961310;28;20642;-71
2021/06/20 11:32:17;;;;;;;7.97;6.80;;;;;;;;;;4950735;28;20109;-71
2021/06/20 11:34:51;;;;;;;7.05;6.43;;;;;;;;;;4962172;28;21731;-71
2021/06/20 11:37:21;;;;;;;7.60;6.80;;;;;;;;;;4953989;28;20071;-71
2021/06/20 11:39:48;;;;;;;8.00;6.18;;;;;;;;;;4955868;28;20519;-71
2021/06/20 11:42:22;;;;;;;7.30;6.53;;;;;;;;;;4960434;28;20121;-72
2021/06/20 11:45:00;;;;;;;7.47;6.70;;;;;;;;;;4959505;28;20063;-71
2021/06/20 11:47:30;;;;;;;6.75;6.07;;;;;;;;;;4961321;28;20575;-71
2021/06/20 11:49:57;;;;;;;7.35;5.90;;;;;;;;;;4962764;28;20107;-71
2021/06/20 11:52:24;;;;;;;6.50;5.80;;;;;;;;;;4955138;28;20069;-70
2021/06/20 11:55:04;;;;;;;6.57;5.93;;;;;;;;;;4957424;28;20314;-71
2021/06/20 11:57:31;;;;;;;7.93;6.97;;;;;;;;;;4955685;28;20066;-72
2021/06/20 12:00:06;;;;;;;7.40;6.30;;;;;;;;;;4955139;28;20054;-72
2021/06/20 12:02:33;;;;;;;8.60;6.55;;;;;;;;;;4959556;28;20125;-72
2021/06/20 12:04:59;;;;;;;8.23;6.35;;;;;;;;;;4961747;28;20580;-72
2021/06/20 12:07:26;;;;;;;7.20;6.47;;;;;;;;;;4958404;28;20074;-72
2021/06/20 12:09:52;;;;;;;6.72;6.05;;;;;;;;;;4961449;28;20462;-72
2021/06/20 12:12:19;;;;;;;7.50;6.68;;;;;;;;;;4974381;28;20098;-73
2021/06/20 12:14:55;;;;;;;7.97;7.18;;;;;;;;;;4954911;28;20083;-71
2021/06/20 12:17:21;;;;;;;7.82;7.05;;;;;;;;;;4966233;28;20087;-71
2021/06/20 12:19:52;;;;;;;6.90;6.30;;;;;;;;;;4961823;28;20067;-71
2021/06/20 12:22:20;;;;;;;7.80;6.95;;;;;;;;;;4961268;28;20078;-72
2021/06/20 12:25:01;;;;;;;7.63;6.28;;;;;;;;;;4965774;28;20082;-71
2021/06/20 12:27:29;;;;;;;8.50;7.00;;;;;;;;;;4961925;28;20156;-72
2021/06/20 12:29:55;;;;;;;7.30;6.60;;;;;;;;;;4967013;28;20431;-71
2021/06/20 12:32:22;;;;;;;7.90;6.50;;;;;;;;;;4964255;28;20101;-71
2021/06/20 12:34:51;;;;;;;8.32;6.57;;;;;;;;;;4957657;28;20063;-71
2021/06/20 12:37:18;;;;;;;9.27;7.30;;;;;;;;;;4955505;28;20506;-71
2021/06/20 19:06:03;;;;;;;2.83;1.50;;;;;;;;;;6051448;23;21103;-72
2021/06/20 19:08:51;;;;;;;4.45;1.23;;;;;;;;;;4957536;28;20145;-70
2021/06/20 19:11:38;;;;;;;2.30;1.30;;;;;;;;;;4967434;28;20031;-72
2021/06/20 19:14:25;;;;;;;4.85;1.50;;;;;;;;;;4966457;28;20054;-73
2021/06/20 19:17:11;;;;;;;2.97;1.20;;;;;;;;;;4964310;28;20652;-72
2021/06/20 19:19:58;;;;;;;2.13;1.00;;;;;;;;;;4962456;28;20045;-72
2021/06/20 19:22:45;;;;;;;2.97;1.17;;;;;;;;;;4967681;28;20039;-73
2021/06/20 19:25:36;;;;;;;3.00;1.10;;;;;;;;;;4962008;28;20042;-72
2021/06/20 19:28:22;;;;;;;4.10;1.42;;;;;;;;;;4965018;28;20030;-72
2021/06/20 19:31:09;;;;;;;3.05;1.45;;;;;;;;;;4967212;28;20030;-72
2021/06/20 19:33:56;;;;;;;2.97;1.25;;;;;;;;;;4964895;28;20038;-73
2021/06/20 19:36:43;;;;;;;3.35;1.35;;;;;;;;;;4967963;28;20098;-73
2021/06/20 19:39:30;;;;;;;2.60;1.30;;;;;;;;;;4965449;28;20936;-72
2021/06/20 19:42:17;;;;;;;3.53;0.90;;;;;;;;;;4961588;28;20893;-72
2021/06/20 19:45:04;;;;;;;1.70;0.90;;;;;;;;;;4965051;28;20035;-72
2021/06/20 19:47:51;;;;;;;2.05;0.98;;;;;;;;;;4967141;28;20042;-71
2021/06/20 19:50:39;;;;;;;1.73;0.73;;;;;;;;;;4967911;28;20505;-72
2021/06/20 19:53:26;;;;;;;0.85;0.70;;;;;;;;;;4967554;28;20061;-72
2021/06/20 19:56:13;;;;;;;1.52;0.98;;;;;;;;;;4964366;28;20095;-72
2021/06/20 19:59:00;;;;;;;1.90;0.93;;;;;;;;;;4979208;28;20515;-72
2021/06/20 20:01:47;;;;;;;2.30;1.00;;;;;;;;;;4962913;28;20054;-72
2021/06/20 20:04:34;;;;;;;2.53;1.13;;;;;;;;;;4964471;28;20589;-72
2021/06/20 20:07:20;;;;;;;2.40;1.13;;;;;;;;;;4966959;28;20051;-72
2021/06/20 20:10:11;;;;;;;1.70;0.95;;;;;;;;;;4968086;28;20047;-72
2021/06/20 20:12:58;;;;;;;1.40;0.80;;;;;;;;;;4966858;28;20517;-72
2021/06/20 20:15:45;;;;;;;2.85;0.85;;;;;;;;;;4969337;28;20034;-73
2021/06/20 20:18:35;;;;;;;1.20;0.88;;;;;;;;;;4966495;28;20035;-72
2021/06/20 20:21:22;;;;;;;2.35;1.00;;;;;;;;;;4966269;28;20037;-72
2021/06/20 20:24:09;;;;;;;1.33;0.90;;;;;;;;;;4966216;28;20065;-72
2021/06/20 20:26:55;;;;;;;2.30;0.90;;;;;;;;;;4966977;28;20518;-71
2021/06/20 20:29:42;;;;;;;3.67;1.20;;;;;;;;;;4966699;28;20052;-72
2021/06/20 20:32:29;;;;;;;4.07;1.20;;;;;;;;;;4968894;28;20029;-72
2021/06/20 20:35:16;;;;;;;2.38;1.00;;;;;;;;;;4968835;28;20037;-72
2021/06/20 20:38:03;;;;;;;2.97;1.02;;;;;;;;;;4970881;28;20046;-74
2021/06/20 20:40:50;;;;;;;1.83;1.00;;;;;;;;;;4964479;28;20221;-72
2021/06/20 20:43:36;;;;;;;2.22;1.00;;;;;;;;;;4966690;28;20516;-71
2021/06/20 20:46:23;;;;;;;2.15;1.02;;;;;;;;;;4969544;28;20495;-72
2021/06/20 20:49:11;;;;;;;3.00;1.23;;;;;;;;;;4968266;28;20107;-72
2021/06/20 20:52:00;;;;;;;2.70;1.17;;;;;;;;;;4969308;28;20049;-77
2021/06/20 20:54:53;;;;;;;3.20;1.27;;;;;;;;;;4971423;28;20573;-72
2021/06/20 20:57:40;;;;;;;1.92;1.00;;;;;;;;;;4970431;28;20031;-71
2021/06/20 21:00:29;;;;;;;2.85;1.00;;;;;;;;;;4968754;28;20383;-71
2021/06/20 21:03:15;;;;;;;1.73;0.98;;;;;;;;;;4971006;28;20051;-71
2021/06/20 21:06:02;;;;;;;2.13;1.02;;;;;;;;;;4967300;28;20046;-73
2021/06/20 21:08:49;;;;;;;1.92;1.05;;;;;;;;;;4971725;28;20122;-71
2021/06/20 21:11:36;;;;;;;7.22;1.67;;;;;;;;;;4970168;28;20079;-73
2021/06/20 21:14:22;;;;;;;5.07;1.35;;;;;;;;;;4968905;28;20035;-72
2021/06/20 21:17:09;;;;;;;2.40;1.08;;;;;;;;;;4959999;28;20544;-71
2021/06/20 21:19:56;;;;;;;1.95;1.00;;;;;;;;;;4970529;28;20050;-74
2021/06/20 21:22:43;;;;;;;2.10;0.90;;;;;;;;;;4969831;28;20418;-71
2021/06/20 21:25:30;;;;;;;1.95;0.80;;;;;;;;;;4968220;28;20085;-71
2021/06/20 21:28:17;;;;;;;1.70;0.93;;;;;;;;;;4966866;28;20638;-76